createdAt,value
2022-11-08T00:01:17.609Z,2.50
2022-11-08T00:04:15.691Z,2.77
2022-11-08T00:07:21.427Z,2.37
2022-11-08T00:10:27.457Z,2.47
2022-11-08T00:13:33.229Z,2.10
2022-11-08T00:16:20.320Z,2.60
2022-11-08T00:19:07.335Z,2.80
2022-11-08T00:21:54.451Z,2.87
2022-11-08T00:24:41.688Z,2.67
2022-11-08T00:27:28.738Z,1.93
2022-11-08T00:30:15.772Z,3.00
2022-11-08T00:33:02.794Z,3.33
2022-11-08T00:35:49.769Z,3.40
2022-11-08T00:38:37.086Z,3.00
2022-11-08T00:41:24.102Z,2.87
2022-11-08T00:44:11.776Z,2.80
2022-11-08T00:46:58.893Z,2.40
2022-11-08T00:49:45.836Z,2.23
2022-11-08T00:52:32.831Z,2.30
2022-11-08T00:55:19.829Z,1.90
2022-11-08T00:58:06.806Z,2.17
2022-11-08T01:00:54.160Z,1.97
2022-11-08T01:03:41.886Z,2.20
2022-11-08T01:06:28.892Z,2.20
2022-11-08T01:09:16.073Z,2.00
2022-11-08T01:12:03.049Z,2.07
2022-11-08T01:14:50.188Z,1.80
2022-11-08T01:17:37.162Z,2.10
2022-11-08T01:20:24.114Z,2.13
2022-11-08T01:23:11.941Z,2.47
2022-11-08T01:26:05.734Z,2.70
2022-11-08T01:28:53.372Z,2.53
2022-11-08T01:31:40.343Z,1.87
2022-11-08T01:34:27.325Z,2.50
2022-11-08T01:37:15.296Z,2.60
2022-11-08T01:40:02.449Z,2.30
2022-11-08T01:42:49.445Z,2.20
2022-11-08T01:46:14.237Z,2.43
2022-11-08T01:49:26.289Z,2.00
2022-11-08T01:52:21.760Z,2.00
2022-11-08T01:55:21.228Z,2.00
2022-11-08T01:58:12.748Z,2.27
2022-11-08T02:01:01.934Z,1.90
2022-11-08T02:03:49.622Z,1.90
2022-11-08T02:06:38.884Z,2.03
2022-11-08T02:09:26.464Z,2.07
2022-11-08T02:12:15.657Z,2.27
2022-11-08T02:15:02.641Z,1.77
2022-11-08T02:17:49.744Z,2.00
2022-11-08T02:20:37.273Z,1.90
2022-11-08T02:23:46.962Z,2.20
2022-11-08T02:26:35.941Z,2.37
2022-11-08T02:29:32.274Z,2.33
2022-11-08T02:32:19.258Z,2.20
2022-11-08T02:35:11.778Z,2.57
2022-11-08T02:37:58.802Z,2.10
2022-11-08T02:40:53.700Z,2.70
2022-11-08T02:43:40.734Z,2.13
2022-11-08T02:46:27.716Z,2.33
2022-11-08T02:49:14.737Z,2.50
2022-11-08T02:52:01.905Z,2.30
2022-11-08T02:54:48.923Z,2.30
2022-11-08T02:57:36.033Z,2.00
2022-11-08T03:00:23.195Z,2.20
2022-11-08T03:03:10.332Z,1.80
2022-11-08T03:05:57.344Z,2.33
2022-11-08T03:08:44.355Z,2.17
2022-11-08T03:11:31.814Z,2.23
2022-11-08T03:14:18.924Z,2.37
2022-11-08T03:17:05.949Z,2.23
2022-11-08T03:19:53.839Z,2.10
2022-11-08T03:22:40.866Z,2.30
2022-11-08T03:25:28.074Z,2.40
2022-11-08T03:28:18.014Z,2.40
2022-11-08T03:31:07.534Z,2.33
2022-11-08T03:33:54.505Z,2.33
2022-11-08T03:36:41.461Z,2.30
2022-11-08T03:39:28.436Z,2.17
2022-11-08T03:42:15.409Z,2.20
2022-11-08T03:45:03.003Z,2.07
2022-11-08T03:47:49.986Z,1.90
2022-11-08T03:50:37.035Z,1.90
2022-11-08T03:53:24.057Z,2.20
2022-11-08T03:56:11.009Z,2.27
2022-11-08T03:58:58.020Z,2.27
2022-11-08T04:01:45.260Z,2.20
2022-11-08T04:04:32.380Z,1.83
2022-11-08T04:07:19.316Z,1.80
2022-11-08T04:10:08.475Z,1.90
2022-11-08T04:13:18.112Z,2.20
2022-11-08T04:16:05.355Z,2.40
2022-11-08T04:19:10.728Z,2.43
2022-11-08T04:21:58.044Z,2.57
2022-11-08T04:24:45.058Z,2.10
2022-11-08T04:27:32.013Z,2.07
2022-11-08T04:30:19.050Z,2.40
2022-11-08T04:33:07.026Z,2.50
2022-11-08T04:35:54.237Z,2.20
2022-11-08T04:38:41.234Z,2.17
2022-11-08T04:41:28.598Z,1.90
2022-11-08T04:44:18.268Z,2.50
2022-11-08T04:47:05.353Z,2.13
2022-11-08T04:49:52.609Z,1.90
2022-11-08T04:52:40.272Z,2.17
2022-11-08T04:55:27.291Z,2.07
2022-11-08T04:58:14.274Z,2.10
2022-11-08T05:01:02.588Z,2.20
2022-11-08T05:03:51.216Z,1.80
2022-11-08T05:06:38.218Z,2.00
2022-11-08T05:09:25.350Z,1.90
2022-11-08T05:12:12.336Z,2.20
2022-11-08T05:14:59.297Z,2.30
2022-11-08T05:17:46.258Z,2.40
2022-11-08T05:20:51.688Z,2.10
2022-11-08T05:23:38.664Z,2.30
2022-11-08T05:26:26.497Z,2.27
2022-11-08T05:29:15.081Z,1.93
2022-11-08T05:32:02.027Z,2.23
2022-11-08T05:34:49.021Z,1.90
2022-11-08T05:37:35.980Z,2.03
2022-11-08T05:40:22.970Z,2.13
2022-11-08T05:43:10.523Z,2.20
2022-11-08T05:45:58.021Z,2.20
2022-11-08T05:48:46.884Z,2.03
2022-11-08T05:51:33.901Z,2.20
2022-11-08T05:54:20.880Z,1.87
2022-11-08T05:57:07.878Z,2.03
2022-11-08T05:59:54.881Z,2.30
2022-11-08T06:02:42.016Z,1.90
2022-11-08T06:05:29.069Z,1.93
2022-11-08T06:08:16.037Z,1.93
2022-11-08T06:11:08.459Z,2.20
2022-11-08T06:13:56.082Z,1.97
2022-11-08T06:16:43.067Z,1.97
2022-11-08T06:19:30.072Z,2.20
2022-11-08T06:22:17.239Z,2.30
2022-11-08T06:25:04.999Z,2.30
2022-11-08T06:27:51.959Z,2.40
2022-11-08T06:30:38.986Z,2.13
2022-11-08T06:33:26.420Z,2.07
2022-11-08T06:36:13.702Z,2.20
2022-11-08T06:39:00.687Z,2.60
2022-11-08T06:41:47.776Z,2.20
2022-11-08T06:44:35.048Z,2.60
2022-11-08T06:47:22.092Z,2.37
2022-11-08T06:50:09.301Z,2.50
2022-11-08T06:52:57.954Z,2.60
2022-11-08T06:55:44.961Z,2.33
2022-11-08T06:58:32.233Z,2.37
2022-11-08T07:01:19.325Z,2.40
2022-11-08T07:04:06.394Z,2.50
2022-11-08T07:06:53.373Z,2.47
2022-11-08T07:09:40.393Z,2.60
2022-11-08T07:12:27.360Z,3.03
2022-11-08T07:15:15.349Z,2.73
2022-11-08T07:18:07.703Z,3.30
2022-11-08T07:21:02.107Z,4.03
2022-11-08T07:23:49.284Z,4.23
2022-11-08T07:26:36.428Z,3.77
2022-11-08T07:29:23.400Z,4.20
2022-11-08T07:32:10.533Z,3.63
2022-11-08T07:34:57.721Z,3.17
2022-11-08T07:37:44.930Z,3.43
2022-11-08T07:40:32.010Z,3.30
2022-11-08T07:43:18.990Z,3.37
2022-11-08T07:46:08.142Z,3.03
2022-11-08T07:48:55.131Z,3.20
2022-11-08T07:51:57.163Z,2.97
2022-11-08T07:54:48.717Z,3.20
2022-11-08T07:58:01.314Z,2.90
2022-11-08T08:01:01.802Z,2.97
2022-11-08T08:04:09.461Z,2.80
2022-11-08T08:07:22.549Z,2.70
2022-11-08T08:10:15.128Z,2.83
2022-11-08T08:13:04.469Z,2.60
2022-11-08T08:16:10.639Z,3.27
2022-11-08T08:19:22.945Z,2.80
2022-11-08T08:22:12.966Z,2.60
2022-11-08T08:25:03.260Z,2.80
2022-11-08T08:28:10.563Z,2.70
2022-11-08T08:31:07.178Z,2.60
2022-11-08T08:34:16.216Z,2.57
2022-11-08T08:37:28.911Z,2.80
2022-11-08T08:40:16.545Z,2.47
2022-11-08T08:43:05.130Z,2.57
2022-11-08T08:45:54.882Z,2.33
2022-11-08T08:49:02.988Z,2.20
2022-11-08T08:51:52.937Z,2.53
2022-11-08T08:55:04.624Z,2.40
2022-11-08T08:57:51.601Z,2.13
2022-11-08T09:03:47.823Z,2.40
2022-11-08T09:06:36.046Z,2.10
2022-11-08T09:09:25.309Z,2.43
2022-11-08T09:12:14.617Z,2.10
2022-11-08T09:15:02.210Z,2.10
2022-11-08T09:17:49.378Z,2.70
2022-11-08T09:20:36.335Z,2.17
2022-11-08T09:23:23.681Z,2.30
2022-11-08T09:26:10.972Z,1.90
2022-11-08T09:29:06.649Z,2.00
2022-11-08T09:31:55.590Z,2.10
2022-11-08T09:34:42.612Z,2.33
2022-11-08T09:37:29.854Z,1.80
2022-11-08T09:40:20.652Z,1.47
2022-11-08T09:43:43.368Z,1.43
2022-11-08T09:46:39.261Z,1.83
2022-11-08T09:49:34.355Z,1.70
2022-11-08T09:52:27.164Z,1.23
2022-11-08T09:55:38.791Z,1.07
2022-11-08T09:58:41.057Z,1.30
2022-11-08T10:01:36.189Z,1.27
2022-11-08T10:04:27.267Z,1.20
2022-11-08T10:07:29.040Z,1.40
2022-11-08T10:10:31.377Z,1.37
2022-11-08T10:13:43.639Z,1.17
2022-11-08T10:16:38.488Z,1.00
2022-11-08T10:19:34.936Z,1.20
2022-11-08T10:22:42.231Z,1.37
2022-11-08T10:25:45.601Z,1.20
2022-11-08T10:28:40.571Z,1.00
2022-11-08T10:31:41.474Z,1.47
2022-11-08T10:34:41.238Z,1.27
2022-11-08T10:37:29.663Z,1.13
2022-11-08T10:40:25.105Z,1.30
2022-11-08T10:43:19.663Z,1.33
2022-11-08T10:46:25.022Z,1.20
2022-11-08T10:49:17.275Z,1.57
2022-11-08T10:52:18.213Z,1.33
2022-11-08T10:55:23.206Z,1.20
2022-11-08T10:58:42.860Z,1.17
2022-11-08T11:01:29.940Z,1.13
2022-11-08T11:04:29.138Z,1.13
2022-11-08T11:07:36.351Z,1.13
2022-11-08T11:10:25.374Z,1.37
2022-11-08T11:13:21.815Z,1.20
2022-11-08T11:16:14.328Z,1.50
2022-11-08T11:19:03.101Z,1.27
2022-11-08T11:22:01.991Z,1.40
2022-11-08T11:24:52.874Z,1.10
2022-11-08T11:27:41.811Z,1.40
2022-11-08T11:30:30.755Z,1.60
2022-11-08T11:33:29.671Z,1.13
2022-11-08T11:36:21.937Z,1.20
2022-11-08T11:39:25.115Z,1.30
2022-11-08T11:46:20.668Z,1.30
2022-11-08T11:49:16.783Z,1.30
2022-11-08T11:52:14.820Z,1.23
2022-11-08T11:55:02.592Z,1.10
2022-11-08T11:58:21.204Z,1.20
2022-11-08T12:01:30.260Z,1.30
2022-11-08T12:04:29.388Z,1.27
2022-11-08T12:07:25.309Z,1.40
2022-11-08T12:10:38.521Z,1.20
2022-11-08T12:13:34.554Z,1.30
2022-11-08T12:16:50.005Z,1.17
2022-11-08T12:20:06.080Z,1.50
2022-11-08T12:23:29.766Z,1.37
2022-11-08T12:26:28.121Z,2.60
2022-11-08T12:29:40.604Z,1.37
2022-11-08T12:32:36.649Z,1.10
2022-11-08T12:35:42.408Z,1.10
2022-11-08T12:38:43.104Z,1.10
2022-11-08T12:41:34.573Z,1.17
2022-11-08T12:44:39.817Z,1.20
2022-11-08T12:47:49.052Z,1.10
2022-11-08T12:51:10.657Z,1.20
2022-11-08T12:54:14.232Z,1.20
2022-11-08T12:57:04.303Z,1.43
2022-11-08T12:59:56.534Z,1.90
2022-11-08T13:02:57.128Z,1.50
2022-11-08T13:06:02.669Z,1.40
2022-11-08T13:09:15.285Z,1.10
2022-11-08T13:12:07.154Z,1.37
2022-11-08T13:14:54.517Z,1.07
2022-11-08T13:17:53.220Z,1.10
2022-11-08T13:20:46.146Z,1.23
2022-11-08T13:23:33.459Z,1.10
2022-11-08T13:26:23.896Z,1.20
2022-11-08T13:29:14.782Z,1.30
2022-11-08T13:32:08.552Z,1.30
2022-11-08T13:35:07.262Z,1.20
2022-11-08T13:38:16.412Z,1.47
2022-11-08T13:41:09.645Z,1.40
2022-11-08T13:43:58.578Z,1.30
2022-11-08T13:46:46.617Z,1.40
2022-11-08T13:49:33.677Z,1.10
2022-11-08T13:52:46.242Z,1.00
2022-11-08T13:55:42.246Z,1.10
2022-11-08T13:58:29.126Z,1.13
2022-11-08T14:01:18.854Z,1.17
2022-11-08T14:04:33.677Z,1.20
2022-11-08T14:07:37.800Z,1.27
2022-11-08T14:10:39.052Z,1.17
2022-11-08T14:13:33.496Z,1.27
2022-11-08T14:16:28.700Z,1.30
2022-11-08T14:19:25.898Z,1.10
2022-11-08T14:22:27.366Z,1.20
2022-11-08T14:25:23.357Z,1.20
2022-11-08T14:28:35.031Z,1.17
2022-11-08T14:31:34.533Z,1.10
2022-11-08T14:34:30.773Z,1.10
2022-11-08T14:37:26.142Z,1.00
2022-11-08T14:40:28.921Z,0.90
2022-11-08T14:43:16.820Z,0.90
2022-11-08T14:46:12.783Z,1.00
2022-11-08T14:49:11.153Z,1.10
2022-11-08T14:52:14.346Z,1.00
2022-11-08T14:55:05.996Z,1.10
2022-11-08T14:57:53.055Z,0.87
2022-11-08T15:00:43.819Z,1.10
2022-11-08T15:03:32.953Z,0.90
2022-11-08T15:06:20.725Z,0.90
2022-11-08T15:09:21.642Z,1.10
2022-11-08T15:12:16.928Z,1.47
2022-11-08T15:15:04.360Z,1.10
2022-11-08T15:18:14.597Z,0.90
2022-11-08T15:21:31.593Z,1.23
2022-11-08T15:24:29.089Z,1.10
2022-11-08T15:27:18.844Z,0.90
2022-11-08T15:30:09.564Z,1.00
2022-11-08T15:32:56.855Z,1.40
2022-11-08T15:35:46.926Z,1.70
2022-11-08T15:38:39.304Z,1.80
2022-11-08T15:41:40.408Z,1.23
2022-11-08T15:44:27.573Z,1.30
2022-11-08T15:47:46.190Z,1.20
2022-11-08T15:50:33.209Z,1.20
2022-11-08T15:53:20.556Z,0.93
2022-11-08T15:56:11.347Z,1.30
2022-11-08T15:58:58.550Z,0.87
2022-11-08T16:01:52.805Z,1.30
2022-11-08T16:04:39.823Z,0.80
2022-11-08T16:07:26.781Z,1.20
2022-11-08T16:10:16.127Z,1.10
2022-11-08T16:13:03.880Z,1.30
2022-11-08T16:15:50.869Z,1.83
2022-11-08T16:18:38.199Z,1.20
2022-11-08T16:21:25.243Z,1.40
2022-11-08T16:24:12.242Z,1.10
2022-11-08T16:27:01.228Z,1.00
2022-11-08T16:29:48.199Z,1.20
2022-11-08T16:32:35.138Z,1.30
2022-11-08T16:35:22.933Z,1.40
2022-11-08T16:38:10.700Z,1.50
2022-11-08T16:40:57.777Z,1.50
2022-11-08T16:43:45.401Z,2.00
2022-11-08T16:46:32.428Z,2.00
2022-11-08T16:49:24.623Z,2.73
2022-11-08T16:52:11.698Z,3.13
2022-11-08T16:54:58.657Z,2.03
2022-11-08T16:57:47.388Z,3.37
2022-11-08T17:00:35.315Z,3.70
2022-11-08T17:03:24.546Z,2.60
2022-11-08T17:06:18.131Z,2.30
2022-11-08T17:09:05.460Z,2.10
2022-11-08T17:11:52.418Z,2.33
2022-11-08T17:14:39.685Z,2.60
2022-11-08T17:17:26.678Z,2.20
2022-11-08T17:20:15.762Z,1.70
2022-11-08T17:23:02.761Z,1.70
2022-11-08T17:25:49.690Z,2.37
2022-11-08T17:28:37.500Z,3.33
2022-11-08T17:31:24.461Z,4.10
2022-11-08T17:34:11.419Z,3.50
2022-11-08T17:36:58.404Z,3.93
2022-11-08T17:39:45.356Z,4.40
2022-11-08T17:42:35.682Z,2.50
2022-11-08T17:45:24.283Z,1.80
2022-11-08T17:48:11.282Z,1.40
2022-11-08T17:50:58.373Z,1.40
2022-11-08T17:53:45.448Z,1.53
2022-11-08T17:56:32.391Z,1.80
2022-11-08T17:59:19.614Z,2.23
2022-11-08T18:02:07.338Z,2.80
2022-11-08T18:04:54.842Z,3.60
2022-11-08T18:07:41.849Z,3.07
2022-11-08T18:10:28.796Z,2.30
2022-11-08T18:13:17.158Z,1.80
2022-11-08T18:16:17.156Z,1.90
2022-11-08T18:19:04.117Z,1.90
2022-11-08T18:21:51.147Z,2.57
2022-11-08T18:24:38.310Z,2.97
2022-11-08T18:27:25.298Z,3.90
2022-11-08T18:30:12.654Z,3.50
2022-11-08T18:32:59.606Z,3.10
2022-11-08T18:35:46.848Z,3.10
2022-11-08T18:38:40.320Z,2.80
2022-11-08T18:41:30.496Z,3.50
2022-11-08T18:44:17.524Z,3.20
2022-11-08T18:47:04.730Z,3.07
2022-11-08T18:49:52.396Z,3.50
2022-11-08T18:52:40.507Z,4.00
2022-11-08T18:55:27.667Z,4.10
2022-11-08T18:58:15.885Z,4.77
2022-11-08T19:01:03.409Z,3.90
2022-11-08T19:03:50.526Z,3.50
2022-11-08T19:06:37.625Z,3.30
2022-11-08T19:09:24.779Z,3.20
2022-11-08T19:12:11.748Z,2.83
2022-11-08T19:14:58.808Z,2.77
2022-11-08T19:17:51.320Z,2.20
2022-11-08T19:20:39.643Z,2.10
2022-11-08T19:23:26.748Z,2.40
2022-11-08T19:26:16.974Z,2.53
2022-11-08T19:29:04.836Z,2.20
2022-11-08T19:31:51.943Z,2.10
2022-11-08T19:34:39.074Z,2.77
2022-11-08T19:37:26.127Z,2.67
2022-11-08T19:40:13.181Z,2.13
2022-11-08T19:43:00.258Z,2.70
2022-11-08T19:45:54.025Z,3.40
2022-11-08T19:48:43.337Z,4.07
2022-11-08T19:51:33.188Z,4.23
2022-11-08T19:54:20.550Z,3.70
2022-11-08T19:57:08.280Z,4.00
2022-11-08T19:59:55.345Z,4.30
2022-11-08T20:02:42.421Z,4.60
2022-11-08T20:05:29.599Z,4.20
2022-11-08T20:08:17.349Z,5.03
2022-11-08T20:11:19.888Z,4.60
2022-11-08T20:14:07.801Z,5.10
2022-11-08T20:16:55.581Z,5.00
2022-11-08T20:19:42.783Z,5.20
2022-11-08T20:22:29.838Z,4.93
2022-11-08T20:25:17.392Z,4.37
2022-11-08T20:28:05.093Z,4.57
2022-11-08T20:30:52.140Z,4.87
2022-11-08T20:33:39.773Z,4.80
2022-11-08T20:36:29.549Z,3.80
2022-11-08T20:39:19.380Z,3.60
2022-11-08T20:42:06.609Z,3.73
2022-11-08T20:44:53.552Z,3.77
2022-11-08T20:47:40.522Z,3.70
2022-11-08T20:50:27.510Z,3.63
2022-11-08T20:53:14.496Z,3.33
2022-11-08T20:56:03.984Z,3.80
2022-11-08T20:58:52.365Z,4.20
2022-11-08T21:01:39.419Z,4.43
2022-11-08T21:04:26.440Z,4.80
2022-11-08T21:10:41.510Z,4.87
2022-11-08T21:13:30.709Z,4.40
2022-11-08T21:19:25.932Z,4.10
2022-11-08T21:22:15.793Z,4.93
2022-11-08T21:25:02.842Z,4.87
2022-11-08T21:27:49.854Z,4.87
2022-11-08T21:30:37.736Z,4.40
2022-11-08T21:33:25.093Z,4.37
2022-11-08T21:36:12.892Z,4.30
2022-11-08T21:38:59.936Z,4.43
2022-11-08T21:41:46.955Z,4.77
2022-11-08T21:44:33.957Z,5.17
2022-11-08T21:47:20.899Z,4.80
2022-11-08T21:50:08.179Z,5.00
2022-11-08T21:52:55.246Z,4.70
2022-11-08T21:55:42.580Z,4.60
2022-11-08T21:58:29.536Z,5.03
2022-11-08T22:01:16.972Z,5.20
2022-11-08T22:04:04.145Z,5.80
2022-11-08T22:06:51.125Z,5.90
2022-11-08T22:09:38.084Z,5.30
2022-11-08T22:12:25.047Z,5.00
2022-11-08T22:15:12.070Z,5.03
2022-11-08T22:18:15.661Z,5.30
2022-11-08T22:21:25.160Z,5.13
2022-11-08T22:24:14.419Z,4.67
2022-11-08T22:27:01.505Z,4.50
2022-11-08T22:29:48.478Z,4.30
2022-11-08T22:32:35.451Z,4.30
2022-11-08T22:35:22.414Z,4.57
2022-11-08T22:38:09.348Z,4.40
2022-11-08T22:40:56.424Z,4.43
2022-11-08T22:43:44.225Z,4.70
2022-11-08T22:46:31.189Z,5.00
2022-11-08T22:49:18.162Z,4.80
2022-11-08T22:52:05.245Z,4.40
2022-11-08T22:54:52.192Z,4.43
2022-11-08T22:57:39.146Z,4.77
2022-11-08T23:00:26.213Z,3.97
2022-11-08T23:03:13.367Z,4.70
2022-11-08T23:06:00.376Z,3.87
2022-11-08T23:08:47.667Z,3.90
2022-11-08T23:11:53.292Z,4.13
2022-11-08T23:14:58.652Z,4.00
2022-11-08T23:17:46.139Z,3.90
2022-11-08T23:20:52.366Z,4.30
2022-11-08T23:23:58.043Z,4.27
2022-11-08T23:27:03.596Z,4.07
2022-11-08T23:30:09.178Z,3.57
2022-11-08T23:32:56.129Z,4.33
2022-11-08T23:36:03.116Z,4.30
2022-11-08T23:38:51.416Z,3.80
2022-11-08T23:41:57.044Z,4.00
2022-11-08T23:44:43.973Z,3.60
2022-11-08T23:47:30.937Z,3.63
2022-11-08T23:50:18.018Z,3.90
2022-11-08T23:53:05.115Z,3.50
2022-11-08T23:55:52.993Z,3.40
2022-11-08T23:58:40.133Z,3.37
